createdAt,value
2018-01-06T00:01:43.404Z,5.27
2018-01-06T00:04:10.901Z,5.53
2018-01-06T00:06:38.424Z,5.97
2018-01-06T00:09:05.911Z,6.20
2018-01-06T00:11:33.456Z,4.73
2018-01-06T00:14:00.950Z,3.57
2018-01-06T00:16:29.214Z,2.63
2018-01-06T00:18:57.491Z,3.90
2018-01-06T00:21:25.761Z,3.97
2018-01-06T00:23:54.048Z,3.87
2018-01-06T00:26:22.309Z,3.50
2018-01-06T00:28:49.844Z,3.30
2018-01-06T00:31:17.432Z,3.20
2018-01-06T00:33:44.948Z,2.13
2018-01-06T00:36:12.468Z,2.90
2018-01-06T00:38:39.975Z,2.80
2018-01-06T00:41:07.504Z,3.00
2018-01-06T00:43:35.042Z,4.00
2018-01-06T00:46:02.557Z,2.30
2018-01-06T00:48:30.054Z,3.33
2018-01-06T00:50:57.572Z,3.10
2018-01-06T00:53:25.177Z,4.77
2018-01-06T00:55:52.698Z,2.20
2018-01-06T00:58:20.224Z,2.80
2018-01-06T01:00:47.740Z,2.27
2018-01-06T01:03:15.232Z,2.40
2018-01-06T01:05:42.748Z,2.93
2018-01-06T01:08:11.040Z,3.73
2018-01-06T01:10:38.547Z,3.30
2018-01-06T01:13:06.080Z,2.43
2018-01-06T01:15:33.632Z,1.87
2018-01-06T01:18:01.141Z,2.40
2018-01-06T01:20:28.694Z,2.10
2018-01-06T01:22:56.192Z,1.70
2018-01-06T01:25:23.724Z,1.93
2018-01-06T01:27:51.992Z,3.17
2018-01-06T01:30:20.257Z,2.17
2018-01-06T01:35:13.744Z,3.13
2018-01-06T01:37:42.038Z,2.40
2018-01-06T01:40:09.532Z,2.90
2018-01-06T01:42:37.082Z,2.20
2018-01-06T01:45:04.603Z,3.20
2018-01-06T01:47:32.896Z,1.93
2018-01-06T01:50:00.412Z,2.50
2018-01-06T01:52:27.908Z,2.50
2018-01-06T01:54:55.431Z,2.83
2018-01-06T01:57:22.932Z,4.47
2018-01-06T01:59:50.464Z,3.70
2018-01-06T02:02:18.751Z,4.00
2018-01-06T02:04:47.025Z,3.27
2018-01-06T02:07:15.315Z,4.20
2018-01-06T02:09:42.829Z,3.50
2018-01-06T02:12:10.349Z,4.60
2018-01-06T02:14:37.875Z,4.10
2018-01-06T02:17:05.456Z,4.83
2018-01-06T02:19:32.979Z,5.00
2018-01-06T02:22:01.340Z,4.77
2018-01-06T02:24:28.832Z,6.30
2018-01-06T02:26:56.326Z,5.43
2018-01-06T02:29:23.857Z,6.23
2018-01-06T02:31:51.352Z,6.30
2018-01-06T02:34:18.846Z,6.00
2018-01-06T02:36:47.132Z,8.03
2018-01-06T02:39:14.661Z,7.73
2018-01-06T02:41:42.149Z,7.13
2018-01-06T02:44:09.648Z,12.00
2018-01-06T02:46:37.180Z,7.80
2018-01-06T02:49:04.675Z,9.10
2018-01-06T02:51:32.222Z,8.63
2018-01-06T02:53:59.808Z,7.93
2018-01-06T02:56:27.303Z,11.10
2018-01-06T02:58:54.811Z,9.67
2018-01-06T03:01:22.347Z,11.30
2018-01-06T03:03:49.837Z,10.63
2018-01-06T03:06:17.372Z,9.30
2018-01-06T03:08:44.881Z,9.80
2018-01-06T03:11:12.399Z,11.80
2018-01-06T03:13:39.933Z,9.97
2018-01-06T03:16:07.475Z,10.80
2018-01-06T03:18:35.037Z,11.87
2018-01-06T03:21:02.648Z,13.27
2018-01-06T03:23:30.147Z,12.03
2018-01-06T03:25:57.662Z,11.40
2018-01-06T03:28:25.193Z,12.63
2018-01-06T03:30:52.689Z,12.93
2018-01-06T03:33:20.962Z,14.47
2018-01-06T03:35:49.258Z,13.23
2018-01-06T03:38:16.764Z,14.90
2018-01-06T03:40:44.278Z,15.07
2018-01-06T03:43:11.812Z,14.03
2018-01-06T03:45:40.108Z,12.87
2018-01-06T03:48:07.616Z,11.00
2018-01-06T03:50:35.107Z,12.13
2018-01-06T03:53:03.397Z,12.47
2018-01-06T03:55:30.948Z,11.80
2018-01-06T03:57:58.464Z,12.13
2018-01-06T04:00:26.010Z,11.97
2018-01-06T04:02:53.530Z,11.63
2018-01-06T04:05:21.029Z,12.93
2018-01-06T04:07:48.566Z,11.20
2018-01-06T04:10:16.065Z,11.57
2018-01-06T04:12:44.324Z,10.90
2018-01-06T04:15:11.854Z,11.80
2018-01-06T04:17:39.344Z,12.37
2018-01-06T04:20:06.860Z,10.67
2018-01-06T04:22:34.356Z,10.00
2018-01-06T04:25:01.888Z,11.63
2018-01-06T04:27:29.383Z,12.07
2018-01-06T04:29:56.888Z,13.60
2018-01-06T04:32:24.416Z,12.43
2018-01-06T04:34:52.691Z,15.17
2018-01-06T04:37:21.029Z,13.50
2018-01-06T04:39:48.519Z,16.97
2018-01-06T04:42:16.796Z,13.87
2018-01-06T04:44:45.060Z,15.73
2018-01-06T04:47:12.588Z,15.47
2018-01-06T04:49:40.132Z,12.37
2018-01-06T04:52:07.620Z,14.53
2018-01-06T04:54:35.112Z,14.37
2018-01-06T04:57:02.656Z,15.03
2018-01-06T04:59:30.915Z,17.40
2018-01-06T05:01:58.412Z,20.07
2018-01-06T05:04:25.931Z,16.30
2018-01-06T05:06:53.568Z,17.33
2018-01-06T05:09:21.086Z,18.53
2018-01-06T05:11:48.580Z,15.70
2018-01-06T05:14:16.130Z,19.67
2018-01-06T05:16:43.627Z,16.80
2018-01-06T05:19:11.931Z,16.00
2018-01-06T05:21:39.447Z,16.90
2018-01-06T05:24:06.953Z,15.40
2018-01-06T05:26:34.494Z,18.53
2018-01-06T05:29:02.757Z,17.00
2018-01-06T05:31:31.023Z,15.50
2018-01-06T05:33:59.309Z,16.17
2018-01-06T05:36:27.585Z,14.60
2018-01-06T05:38:55.885Z,15.30
2018-01-06T05:41:23.375Z,16.23
2018-01-06T05:43:50.961Z,14.20
2018-01-06T05:46:18.444Z,13.70
2018-01-06T05:48:46.709Z,14.30
2018-01-06T05:51:14.995Z,12.23
2018-01-06T05:53:43.251Z,11.30
2018-01-06T05:56:10.775Z,11.00
2018-01-06T05:58:38.268Z,11.50
2018-01-06T06:01:05.816Z,10.00
2018-01-06T06:03:33.308Z,11.27
2018-01-06T06:06:01.576Z,9.23
2018-01-06T06:08:29.866Z,10.17
2018-01-06T06:10:57.366Z,9.77
2018-01-06T06:13:24.879Z,9.40
2018-01-06T06:15:52.382Z,10.37
2018-01-06T06:18:19.900Z,10.30
2018-01-06T06:20:47.388Z,9.80
2018-01-06T06:23:14.907Z,10.07
2018-01-06T06:25:42.402Z,9.73
2018-01-06T06:28:09.912Z,7.50
2018-01-06T06:30:37.442Z,11.30
2018-01-06T06:33:04.932Z,10.77
2018-01-06T06:35:32.463Z,7.80
2018-01-06T06:37:59.952Z,9.33
2018-01-06T06:40:27.463Z,9.77
2018-01-06T06:42:54.981Z,8.60
2018-01-06T06:45:22.509Z,8.63
2018-01-06T06:47:50.762Z,8.27
2018-01-06T06:50:18.257Z,10.47
2018-01-06T06:52:45.767Z,10.73
2018-01-06T06:55:13.264Z,10.00
2018-01-06T06:57:40.792Z,9.50
2018-01-06T07:00:08.403Z,8.20
2018-01-06T07:02:35.896Z,9.97
2018-01-06T07:05:03.420Z,10.87
2018-01-06T07:07:30.920Z,10.00
2018-01-06T07:09:58.436Z,11.03
2018-01-06T07:12:25.939Z,10.30
2018-01-06T07:14:53.450Z,9.93
2018-01-06T07:17:20.959Z,10.77
2018-01-06T07:19:49.233Z,10.60
2018-01-06T07:22:16.754Z,11.07
2018-01-06T07:24:44.390Z,10.80
2018-01-06T07:27:11.883Z,12.00
2018-01-06T07:29:39.400Z,12.50
2018-01-06T07:32:06.908Z,12.67
2018-01-06T07:34:34.456Z,12.17
2018-01-06T07:37:01.960Z,13.40
2018-01-06T07:39:29.463Z,14.77
2018-01-06T07:41:56.980Z,12.30
2018-01-06T07:44:24.507Z,13.37
2018-01-06T07:46:52.820Z,11.73
2018-01-06T07:49:20.315Z,11.97
2018-01-06T07:51:47.826Z,13.67
2018-01-06T07:54:15.332Z,11.50
2018-01-06T07:56:42.859Z,13.50
2018-01-06T07:59:10.397Z,12.53
2018-01-06T08:01:37.909Z,13.60
2018-01-06T08:04:05.432Z,13.37
2018-01-06T08:06:32.949Z,14.07
2018-01-06T08:09:00.470Z,12.10
2018-01-06T08:11:28.004Z,12.93
2018-01-06T08:13:55.527Z,12.50
2018-01-06T08:16:23.815Z,13.87
2018-01-06T08:18:51.335Z,12.50
2018-01-06T08:21:18.854Z,10.63
2018-01-06T08:23:46.367Z,13.77
2018-01-06T08:26:13.889Z,13.47
2018-01-06T08:28:41.412Z,11.93
2018-01-06T08:31:08.965Z,11.70
2018-01-06T08:33:36.476Z,13.50
2018-01-06T08:36:04.030Z,13.50
2018-01-06T08:38:31.524Z,14.07
2018-01-06T08:40:59.780Z,12.60
2018-01-06T08:43:27.300Z,14.43
2018-01-06T08:45:54.797Z,12.80
2018-01-06T08:48:22.317Z,14.30
2018-01-06T08:50:49.815Z,12.93
2018-01-06T08:53:17.328Z,12.57
2018-01-06T08:55:44.840Z,12.03
2018-01-06T08:58:13.140Z,12.27
2018-01-06T09:00:40.668Z,13.13
2018-01-06T09:03:08.180Z,13.77
2018-01-06T09:05:35.740Z,13.53
2018-01-06T09:08:03.272Z,12.20
2018-01-06T09:10:30.791Z,12.60
2018-01-06T09:12:58.320Z,13.77
2018-01-06T09:15:25.824Z,14.07
2018-01-06T09:17:54.137Z,12.67
2018-01-06T09:20:21.635Z,12.80
2018-01-06T09:22:49.173Z,13.20
2018-01-06T09:25:16.705Z,11.37
2018-01-06T09:27:44.480Z,12.50
2018-01-06T09:30:11.983Z,12.47
2018-01-06T09:32:39.522Z,11.00
2018-01-06T09:35:07.030Z,10.93
2018-01-06T09:37:34.537Z,13.27
2018-01-06T09:40:02.068Z,13.70
2018-01-06T09:42:29.604Z,16.57
2018-01-06T09:44:57.158Z,17.17
2018-01-06T09:47:24.660Z,15.63
2018-01-06T09:49:52.207Z,15.53
2018-01-06T09:52:19.760Z,17.60
2018-01-06T09:54:47.297Z,15.30
2018-01-06T09:57:14.882Z,15.17
2018-01-06T09:59:42.381Z,15.67
2018-01-06T10:02:10.706Z,15.30
2018-01-06T10:04:38.218Z,18.13
2018-01-06T10:07:06.499Z,16.53
2018-01-06T10:09:34.805Z,16.03
2018-01-06T10:12:02.309Z,17.93
2018-01-06T10:14:29.844Z,17.00
2018-01-06T10:16:57.360Z,15.80
2018-01-06T10:19:24.897Z,16.17
2018-01-06T10:21:52.434Z,19.53
2018-01-06T10:24:19.967Z,16.40
2018-01-06T10:26:47.514Z,18.10
2018-01-06T10:29:15.039Z,17.80
2018-01-06T10:31:42.600Z,16.87
2018-01-06T10:34:10.889Z,17.10
2018-01-06T10:36:38.466Z,15.27
2018-01-06T10:39:05.970Z,16.23
2018-01-06T10:41:33.481Z,17.87
2018-01-06T10:44:01.211Z,15.70
2018-01-06T10:46:28.796Z,19.17
2018-01-06T10:48:56.331Z,15.53
2018-01-06T10:51:23.865Z,19.00
2018-01-06T10:53:52.164Z,14.10
2018-01-06T10:56:20.741Z,17.53
2018-01-06T10:58:49.045Z,14.80
2018-01-06T11:04:15.440Z,14.03
2018-01-06T11:06:43.261Z,13.40
2018-01-06T11:09:10.792Z,12.83
2018-01-06T11:11:39.108Z,13.37
2018-01-06T11:14:06.712Z,11.00
2018-01-06T11:16:34.312Z,9.87
2018-01-06T11:19:02.954Z,9.83
2018-01-06T11:21:30.462Z,10.87
2018-01-06T11:23:57.971Z,12.70
2018-01-06T11:26:25.521Z,11.93
2018-01-06T11:28:53.053Z,11.70
2018-01-06T11:31:20.568Z,10.07
2018-01-06T11:33:48.096Z,9.97
2018-01-06T11:36:15.592Z,11.07
2018-01-06T11:38:43.110Z,9.67
2018-01-06T11:41:10.621Z,9.13
2018-01-06T11:43:38.162Z,10.10
2018-01-06T11:46:05.838Z,10.87
2018-01-06T11:48:33.408Z,9.60
2018-01-06T11:51:00.954Z,10.80
2018-01-06T11:53:28.460Z,11.60
2018-01-06T11:55:57.510Z,9.43
2018-01-06T11:58:25.015Z,9.90
2018-01-06T12:00:52.676Z,9.10
2018-01-06T12:03:20.200Z,8.20
2018-01-06T12:05:47.955Z,9.10
2018-01-06T12:08:15.733Z,9.90
2018-01-06T12:10:43.260Z,10.17
2018-01-06T12:13:10.775Z,10.23
2018-01-06T12:15:38.287Z,5.70
2018-01-06T12:18:05.802Z,3.90
2018-01-06T12:20:34.156Z,3.37
2018-01-06T12:23:01.656Z,2.93
2018-01-06T12:25:29.169Z,2.43
2018-01-06T12:27:56.721Z,2.57
2018-01-06T12:30:24.218Z,2.93
2018-01-06T12:32:52.499Z,1.53
2018-01-06T12:35:20.792Z,2.77
2018-01-06T12:37:48.304Z,2.10
2018-01-06T12:40:15.817Z,3.83
2018-01-06T12:42:43.364Z,2.57
2018-01-06T12:45:10.888Z,2.70
2018-01-06T12:47:38.393Z,2.50
2018-01-06T12:50:05.942Z,3.20
2018-01-06T12:52:33.444Z,3.00
2018-01-06T12:55:00.969Z,3.07
2018-01-06T12:57:28.468Z,2.70
2018-01-06T12:59:56.021Z,3.07
2018-01-06T13:02:23.545Z,2.73
2018-01-06T13:04:51.084Z,2.40
2018-01-06T13:07:18.692Z,2.30
2018-01-06T13:09:47.706Z,2.20
2018-01-06T13:12:16.044Z,2.97
2018-01-06T13:14:43.579Z,3.43
2018-01-06T13:17:11.117Z,3.90
2018-01-06T13:19:38.614Z,2.47
2018-01-06T13:22:06.176Z,2.83
2018-01-06T13:24:33.699Z,2.20
2018-01-06T13:27:01.230Z,2.87
2018-01-06T13:29:29.547Z,3.30
2018-01-06T13:31:57.041Z,2.63
2018-01-06T13:34:24.540Z,3.00
2018-01-06T13:36:52.066Z,4.10
2018-01-06T13:39:19.609Z,1.83
2018-01-06T13:41:47.109Z,2.70
2018-01-06T13:44:15.395Z,2.67
2018-01-06T13:46:42.948Z,2.57
2018-01-06T13:49:10.450Z,2.80
2018-01-06T13:51:37.993Z,2.80
2018-01-06T13:54:05.509Z,3.00
2018-01-06T13:56:33.795Z,3.10
2018-01-06T13:59:01.344Z,2.77
2018-01-06T14:01:29.610Z,3.40
2018-01-06T14:03:57.924Z,3.47
2018-01-06T14:06:25.425Z,5.17
2018-01-06T14:08:54.467Z,3.30
2018-01-06T14:11:22.010Z,3.57
2018-01-06T14:13:49.542Z,2.70
2018-01-06T14:16:17.086Z,3.17
2018-01-06T14:18:44.605Z,3.30
2018-01-06T14:21:12.264Z,3.33
2018-01-06T14:23:39.772Z,3.80
2018-01-06T14:26:07.290Z,3.70
2018-01-06T14:28:34.808Z,3.90
2018-01-06T14:31:03.069Z,3.33
2018-01-06T14:33:31.380Z,2.90
2018-01-06T14:35:58.890Z,3.37
2018-01-06T14:38:26.416Z,4.87
2018-01-06T14:40:53.965Z,3.30
2018-01-06T14:43:21.467Z,3.10
2018-01-06T14:45:48.973Z,3.20
2018-01-06T14:48:16.500Z,3.20
2018-01-06T14:50:44.813Z,3.43
2018-01-06T14:53:12.360Z,3.60
2018-01-06T14:55:39.860Z,3.40
2018-01-06T14:58:07.359Z,3.60
2018-01-06T15:00:35.807Z,4.20
2018-01-06T15:03:03.313Z,3.23
2018-01-06T15:05:30.827Z,6.27
2018-01-06T15:08:00.041Z,3.43
2018-01-06T15:10:28.292Z,5.90
2018-01-06T15:12:55.832Z,3.70
2018-01-06T15:15:23.324Z,4.33
2018-01-06T15:17:51.600Z,4.77
2018-01-06T15:20:19.910Z,3.83
2018-01-06T15:22:47.416Z,4.67
2018-01-06T15:25:14.942Z,4.27
2018-01-06T15:27:42.504Z,5.07
2018-01-06T15:30:10.020Z,5.67
2018-01-06T15:32:38.317Z,4.87
2018-01-06T15:35:05.861Z,5.97
2018-01-06T15:37:33.396Z,6.23
2018-01-06T15:40:01.676Z,6.70
2018-01-06T15:42:29.986Z,6.40
2018-01-06T15:44:57.485Z,6.20
2018-01-06T15:47:25.011Z,7.47
2018-01-06T15:49:52.513Z,6.30
2018-01-06T15:52:20.829Z,9.73
2018-01-06T15:54:48.348Z,6.83
2018-01-06T15:57:16.674Z,8.27
2018-01-06T15:59:44.204Z,6.50
2018-01-06T16:02:12.482Z,7.20
2018-01-06T16:04:40.061Z,8.77
2018-01-06T16:07:07.566Z,7.10
2018-01-06T16:09:35.106Z,7.57
2018-01-06T16:12:02.616Z,5.90
2018-01-06T16:14:30.125Z,9.10
2018-01-06T16:16:57.652Z,9.97
2018-01-06T16:19:25.172Z,11.13
2018-01-06T16:21:53.587Z,13.27
2018-01-06T16:24:21.117Z,9.30
2018-01-06T16:26:48.665Z,6.20
2018-01-06T16:29:16.174Z,7.63
2018-01-06T16:31:43.689Z,7.17
2018-01-06T16:34:12.019Z,6.70
2018-01-06T16:36:39.536Z,5.83
2018-01-06T16:39:07.066Z,5.60
2018-01-06T16:41:35.361Z,6.37
2018-01-06T16:44:03.641Z,7.30
2018-01-06T16:46:31.200Z,6.50
2018-01-06T16:48:58.791Z,8.93
2018-01-06T16:51:26.344Z,6.63
2018-01-06T16:53:53.881Z,7.50
2018-01-06T16:56:21.481Z,7.40
2018-01-06T16:58:48.992Z,7.80
2018-01-06T17:01:17.278Z,8.57
2018-01-06T17:03:44.822Z,7.73
2018-01-06T17:06:12.362Z,8.13
2018-01-06T17:08:40.665Z,8.30
2018-01-06T17:11:08.176Z,7.10
2018-01-06T17:13:35.714Z,8.07
2018-01-06T17:16:03.293Z,9.00
2018-01-06T17:18:30.805Z,8.70
2018-01-06T17:20:58.319Z,8.70
2018-01-06T17:23:25.868Z,8.10
2018-01-06T17:25:54.205Z,8.73
2018-01-06T17:28:21.754Z,8.90
2018-01-06T17:30:49.259Z,9.77
2018-01-06T17:33:16.781Z,10.23
2018-01-06T17:35:44.308Z,10.97
2018-01-06T17:38:12.618Z,10.30
2018-01-06T17:40:40.159Z,10.60
2018-01-06T17:43:07.725Z,10.63
2018-01-06T17:45:35.253Z,9.67
2018-01-06T17:48:03.536Z,9.63
2018-01-06T17:50:31.851Z,11.40
2018-01-06T17:52:59.347Z,10.30
2018-01-06T17:55:26.864Z,9.90
2018-01-06T17:57:54.416Z,10.23
2018-01-06T18:00:21.956Z,10.67
2018-01-06T18:02:49.477Z,10.60
2018-01-06T18:05:17.010Z,11.23
2018-01-06T18:07:44.548Z,9.90
2018-01-06T18:10:12.076Z,12.20
2018-01-06T18:12:39.604Z,12.03
2018-01-06T18:15:07.156Z,15.53
2018-01-06T18:17:34.679Z,45.00
2018-01-06T18:20:02.241Z,23.60
2018-01-06T18:22:29.752Z,28.37
2018-01-06T18:24:58.029Z,26.77
2018-01-06T18:27:26.414Z,22.53
2018-01-06T18:29:53.912Z,22.10
2018-01-06T18:32:21.459Z,19.50
2018-01-06T18:34:48.985Z,14.30
2018-01-06T18:37:17.308Z,14.67
2018-01-06T18:39:44.873Z,19.03
2018-01-06T18:42:12.379Z,13.83
2018-01-06T18:44:40.678Z,14.60
2018-01-06T18:47:08.466Z,14.93
2018-01-06T18:49:36.005Z,12.30
2018-01-06T18:52:03.521Z,16.50
2018-01-06T18:54:31.808Z,12.30
2018-01-06T18:57:00.097Z,13.23
2018-01-06T18:59:27.625Z,12.23
2018-01-06T19:01:55.459Z,12.87
2018-01-06T19:04:22.989Z,12.90
2018-01-06T19:06:50.526Z,12.37
2018-01-06T19:09:18.820Z,14.50
2018-01-06T19:11:46.424Z,12.50
2018-01-06T19:14:14.070Z,12.33
2018-01-06T19:16:41.614Z,12.03
2018-01-06T19:19:09.160Z,13.03
2018-01-06T19:21:36.720Z,14.33
2018-01-06T19:24:04.244Z,10.70
2018-01-06T19:26:32.578Z,14.27
2018-01-06T19:29:00.093Z,12.93
2018-01-06T19:31:27.637Z,10.20
2018-01-06T19:33:55.938Z,14.70
2018-01-06T19:36:23.486Z,12.10
2018-01-06T19:38:51.070Z,13.37
2018-01-06T19:41:18.717Z,12.80
2018-01-06T19:43:46.757Z,13.10
2018-01-06T19:46:15.037Z,13.13
2018-01-06T19:48:43.336Z,14.23
2018-01-06T19:51:10.898Z,16.23
2018-01-06T19:53:38.499Z,13.60
2018-01-06T19:56:06.055Z,13.97
2018-01-06T19:58:33.572Z,15.03
2018-01-06T20:01:01.968Z,14.37
2018-01-06T20:03:29.514Z,15.87
2018-01-06T20:05:57.045Z,16.43
2018-01-06T20:08:25.331Z,15.60
2018-01-06T20:10:52.865Z,15.30
2018-01-06T20:13:21.177Z,16.93
2018-01-06T20:15:48.694Z,15.57
2018-01-06T20:18:16.235Z,14.37
2018-01-06T20:20:45.375Z,16.03
2018-01-06T20:23:13.664Z,17.07
2018-01-06T20:25:41.297Z,14.93
2018-01-06T20:28:08.829Z,14.60
2018-01-06T20:30:36.421Z,14.83
2018-01-06T20:33:04.703Z,16.30
2018-01-06T20:35:32.277Z,14.47
2018-01-06T20:37:59.812Z,14.43
2018-01-06T20:40:28.109Z,14.77
2018-01-06T20:42:55.678Z,14.47
2018-01-06T20:45:23.243Z,14.87
2018-01-06T20:47:50.798Z,14.70
2018-01-06T20:50:18.334Z,14.70
2018-01-06T20:52:45.849Z,15.67
2018-01-06T20:55:13.407Z,15.33
2018-01-06T20:57:40.947Z,17.30
2018-01-06T21:00:08.515Z,16.50
2018-01-06T21:02:36.039Z,17.37
2018-01-06T21:05:03.598Z,14.20
2018-01-06T21:07:31.142Z,14.40
2018-01-06T21:09:58.674Z,15.73
2018-01-06T21:12:26.985Z,15.03
2018-01-06T21:14:54.501Z,15.53
2018-01-06T21:17:22.052Z,18.10
2018-01-06T21:19:49.598Z,17.00
2018-01-06T21:22:17.172Z,16.70
2018-01-06T21:24:44.689Z,17.13
2018-01-06T21:27:12.216Z,17.77
2018-01-06T21:29:40.566Z,17.23
2018-01-06T21:32:08.130Z,17.07
2018-01-06T21:34:35.669Z,16.60
2018-01-06T21:37:03.179Z,17.03
2018-01-06T21:39:30.706Z,16.57
2018-01-06T21:41:58.256Z,16.03
2018-01-06T21:44:25.805Z,15.97
2018-01-06T21:46:53.310Z,16.47
2018-01-06T21:49:20.813Z,16.47
2018-01-06T21:51:48.356Z,16.20
2018-01-06T21:54:15.890Z,17.83
2018-01-06T21:56:43.579Z,19.27
2018-01-06T21:59:11.101Z,18.33
2018-01-06T22:01:38.608Z,17.90
2018-01-06T22:04:06.218Z,20.70
2018-01-06T22:06:33.732Z,18.60
2018-01-06T22:09:01.288Z,17.50
2018-01-06T22:11:28.797Z,16.27
2018-01-06T22:13:56.316Z,18.67
2018-01-06T22:16:23.839Z,17.07
2018-01-06T22:18:51.359Z,19.20
2018-01-06T22:21:18.909Z,21.93
2018-01-06T22:23:47.217Z,20.00
2018-01-06T22:26:14.776Z,18.80
2018-01-06T22:28:42.286Z,18.30
2018-01-06T22:31:09.820Z,18.30
2018-01-06T22:33:37.355Z,17.87
2018-01-06T22:36:04.905Z,20.53
2018-01-06T22:38:32.430Z,17.77
2018-01-06T22:41:00.716Z,18.77
2018-01-06T22:43:28.253Z,17.80
2018-01-06T22:45:56.527Z,20.40
2018-01-06T22:48:24.841Z,18.30
2018-01-06T22:50:52.383Z,19.37
2018-01-06T22:53:19.886Z,18.63
2018-01-06T22:55:47.439Z,17.47
2018-01-06T22:58:14.952Z,19.30
2018-01-06T23:00:50.214Z,18.80
2018-01-06T23:03:17.723Z,18.10
2018-01-06T23:05:45.277Z,18.93
2018-01-06T23:08:12.972Z,17.57
2018-01-06T23:10:40.490Z,19.37
2018-01-06T23:13:08.000Z,18.60
2018-01-06T23:15:35.550Z,18.10
2018-01-06T23:18:03.100Z,17.83
2018-01-06T23:20:30.612Z,17.43
2018-01-06T23:22:58.179Z,20.20
2018-01-06T23:25:25.764Z,15.63
2018-01-06T23:27:54.069Z,19.57
2018-01-06T23:30:21.635Z,18.67
2018-01-06T23:32:49.189Z,17.70
2018-01-06T23:35:16.713Z,17.50
2018-01-06T23:37:45.071Z,16.63
2018-01-06T23:40:12.687Z,18.57
2018-01-06T23:42:40.244Z,17.70
2018-01-06T23:45:07.771Z,17.87
2018-01-06T23:47:36.051Z,19.27
2018-01-06T23:50:04.371Z,19.60
2018-01-06T23:52:31.896Z,18.33
2018-01-06T23:54:59.441Z,18.03
2018-01-06T23:57:27.730Z,19.57
2018-01-06T23:59:55.251Z,19.00
